sensor_id;sensor_type;location;lat;lon;timestamp;P1;durP1;ratioP1;P2;durP2;ratioP2
13704;SDS011;6924;52.122;9.952;2024-03-02T00:00:35;15.53;;;12.43;;
13704;SDS011;6924;52.122;9.952;2024-03-02T00:03:01;14.43;;;11.73;;
13704;SDS011;6924;52.122;9.952;2024-03-02T00:05:29;13.33;;;11.80;;
13704;SDS011;6924;52.122;9.952;2024-03-02T00:07:56;14.43;;;11.77;;
13704;SDS011;6924;52.122;9.952;2024-03-02T00:10:27;13.40;;;11.50;;
13704;SDS011;6924;52.122;9.952;2024-03-02T00:13:02;13.20;;;11.60;;
13704;SDS011;6924;52.122;9.952;2024-03-02T00:15:39;13.40;;;12.00;;
13704;SDS011;6924;52.122;9.952;2024-03-02T00:18:08;14.83;;;12.63;;
13704;SDS011;6924;52.122;9.952;2024-03-02T00:20:37;15.40;;;12.87;;
13704;SDS011;6924;52.122;9.952;2024-03-02T00:23:04;14.87;;;11.77;;
13704;SDS011;6924;52.122;9.952;2024-03-02T00:25:42;12.67;;;10.33;;
13704;SDS011;6924;52.122;9.952;2024-03-02T00:28:11;12.27;;;10.90;;
13704;SDS011;6924;52.122;9.952;2024-03-02T00:30:51;16.80;;;12.23;;
13704;SDS011;6924;52.122;9.952;2024-03-02T00:33:21;12.23;;;11.07;;
13704;SDS011;6924;52.122;9.952;2024-03-02T00:35:48;14.57;;;11.33;;
13704;SDS011;6924;52.122;9.952;2024-03-02T00:38:15;12.70;;;11.17;;
13704;SDS011;6924;52.122;9.952;2024-03-02T00:40:44;14.00;;;11.30;;
13704;SDS011;6924;52.122;9.952;2024-03-02T00:43:15;15.10;;;11.60;;
13704;SDS011;6924;52.122;9.952;2024-03-02T00:46:02;14.60;;;11.70;;
13704;SDS011;6924;52.122;9.952;2024-03-02T00:48:28;13.63;;;12.00;;
13704;SDS011;6924;52.122;9.952;2024-03-02T00:50:56;15.27;;;10.93;;
13704;SDS011;6924;52.122;9.952;2024-03-02T00:53:23;15.07;;;12.13;;
13704;SDS011;6924;52.122;9.952;2024-03-02T00:55:54;15.70;;;12.27;;
13704;SDS011;6924;52.122;9.952;2024-03-02T00:58:20;14.57;;;11.43;;
13704;SDS011;6924;52.122;9.952;2024-03-02T01:00:46;13.43;;;11.63;;
13704;SDS011;6924;52.122;9.952;2024-03-02T01:03:13;13.57;;;12.17;;
13704;SDS011;6924;52.122;9.952;2024-03-02T01:05:40;14.20;;;11.93;;
13704;SDS011;6924;52.122;9.952;2024-03-02T01:08:07;14.50;;;11.27;;
13704;SDS011;6924;52.122;9.952;2024-03-02T01:10:33;17.17;;;11.57;;
13704;SDS011;6924;52.122;9.952;2024-03-02T01:13:01;14.67;;;12.57;;
13704;SDS011;6924;52.122;9.952;2024-03-02T01:15:27;15.17;;;11.37;;
13704;SDS011;6924;52.122;9.952;2024-03-02T01:17:54;15.93;;;11.30;;
13704;SDS011;6924;52.122;9.952;2024-03-02T01:20:20;15.20;;;11.70;;
13704;SDS011;6924;52.122;9.952;2024-03-02T01:22:47;12.57;;;11.23;;
13704;SDS011;6924;52.122;9.952;2024-03-02T01:25:14;14.03;;;12.63;;
13704;SDS011;6924;52.122;9.952;2024-03-02T01:27:40;14.43;;;11.73;;
13704;SDS011;6924;52.122;9.952;2024-03-02T01:30:08;18.13;;;11.63;;
13704;SDS011;6924;52.122;9.952;2024-03-02T01:32:37;14.57;;;12.20;;
13704;SDS011;6924;52.122;9.952;2024-03-02T01:35:02;12.50;;;10.90;;
13704;SDS011;6924;52.122;9.952;2024-03-02T01:37:29;16.87;;;13.23;;
13704;SDS011;6924;52.122;9.952;2024-03-02T01:39:55;15.30;;;11.87;;
13704;SDS011;6924;52.122;9.952;2024-03-02T01:42:22;14.50;;;12.20;;
13704;SDS011;6924;52.122;9.952;2024-03-02T01:44:48;15.17;;;12.20;;
13704;SDS011;6924;52.122;9.952;2024-03-02T01:47:16;17.73;;;12.60;;
13704;SDS011;6924;52.122;9.952;2024-03-02T01:49:42;14.90;;;12.77;;
13704;SDS011;6924;52.122;9.952;2024-03-02T01:52:09;13.47;;;11.87;;
13704;SDS011;6924;52.122;9.952;2024-03-02T01:54:36;20.03;;;12.90;;
13704;SDS011;6924;52.122;9.952;2024-03-02T01:57:02;16.63;;;12.40;;
13704;SDS011;6924;52.122;9.952;2024-03-02T01:59:29;16.77;;;11.60;;
13704;SDS011;6924;52.122;9.952;2024-03-02T02:01:55;14.33;;;12.50;;
13704;SDS011;6924;52.122;9.952;2024-03-02T02:04:23;15.03;;;11.93;;
13704;SDS011;6924;52.122;9.952;2024-03-02T02:06:52;13.97;;;11.00;;
13704;SDS011;6924;52.122;9.952;2024-03-02T02:09:19;16.07;;;13.27;;
13704;SDS011;6924;52.122;9.952;2024-03-02T02:11:45;21.67;;;13.80;;
13704;SDS011;6924;52.122;9.952;2024-03-02T02:14:12;17.80;;;13.17;;
13704;SDS011;6924;52.122;9.952;2024-03-02T02:16:38;16.13;;;12.97;;
13704;SDS011;6924;52.122;9.952;2024-03-02T02:19:05;12.37;;;11.13;;
13704;SDS011;6924;52.122;9.952;2024-03-02T02:21:32;16.90;;;12.77;;
13704;SDS011;6924;52.122;9.952;2024-03-02T02:23:59;14.70;;;12.93;;
13704;SDS011;6924;52.122;9.952;2024-03-02T02:26:28;14.37;;;12.13;;
13704;SDS011;6924;52.122;9.952;2024-03-02T02:28:54;17.27;;;13.23;;
13704;SDS011;6924;52.122;9.952;2024-03-02T02:31:21;14.00;;;12.07;;
13704;SDS011;6924;52.122;9.952;2024-03-02T02:33:47;16.93;;;13.20;;
13704;SDS011;6924;52.122;9.952;2024-03-02T02:36:13;16.87;;;12.47;;
13704;SDS011;6924;52.122;9.952;2024-03-02T02:38:42;17.30;;;12.67;;
13704;SDS011;6924;52.122;9.952;2024-03-02T02:41:12;15.07;;;11.87;;
13704;SDS011;6924;52.122;9.952;2024-03-02T02:43:38;17.83;;;13.87;;
13704;SDS011;6924;52.122;9.952;2024-03-02T02:46:05;15.57;;;12.40;;
13704;SDS011;6924;52.122;9.952;2024-03-02T02:48:31;15.63;;;12.83;;
13704;SDS011;6924;52.122;9.952;2024-03-02T02:50:58;13.23;;;11.67;;
13704;SDS011;6924;52.122;9.952;2024-03-02T02:53:24;14.63;;;12.23;;
13704;SDS011;6924;52.122;9.952;2024-03-02T02:55:52;15.10;;;12.67;;
13704;SDS011;6924;52.122;9.952;2024-03-02T02:58:18;19.03;;;12.63;;
13704;SDS011;6924;52.122;9.952;2024-03-02T03:00:44;18.00;;;12.47;;
13704;SDS011;6924;52.122;9.952;2024-03-02T03:03:11;14.57;;;12.83;;
13704;SDS011;6924;52.122;9.952;2024-03-02T03:05:37;14.87;;;13.27;;
13704;SDS011;6924;52.122;9.952;2024-03-02T03:08:04;14.77;;;12.93;;
13704;SDS011;6924;52.122;9.952;2024-03-02T03:10:30;17.73;;;12.57;;
13704;SDS011;6924;52.122;9.952;2024-03-02T03:12:59;17.83;;;13.10;;
13704;SDS011;6924;52.122;9.952;2024-03-02T03:15:25;16.60;;;13.30;;
13704;SDS011;6924;52.122;9.952;2024-03-02T03:17:52;16.23;;;12.73;;
13704;SDS011;6924;52.122;9.952;2024-03-02T03:20:18;14.23;;;12.73;;
13704;SDS011;6924;52.122;9.952;2024-03-02T03:22:46;17.17;;;12.67;;
13704;SDS011;6924;52.122;9.952;2024-03-02T03:25:12;17.93;;;12.60;;
13704;SDS011;6924;52.122;9.952;2024-03-02T03:27:39;18.13;;;13.47;;
13704;SDS011;6924;52.122;9.952;2024-03-02T03:30:08;15.93;;;13.17;;
13704;SDS011;6924;52.122;9.952;2024-03-02T03:32:35;17.63;;;13.60;;
13704;SDS011;6924;52.122;9.952;2024-03-02T03:35:02;14.40;;;13.00;;
13704;SDS011;6924;52.122;9.952;2024-03-02T03:37:29;19.20;;;13.07;;
13704;SDS011;6924;52.122;9.952;2024-03-02T03:39:57;15.10;;;11.87;;
13704;SDS011;6924;52.122;9.952;2024-03-02T03:42:24;17.63;;;12.90;;
13704;SDS011;6924;52.122;9.952;2024-03-02T03:44:51;17.70;;;13.17;;
13704;SDS011;6924;52.122;9.952;2024-03-02T03:47:18;16.50;;;12.50;;
13704;SDS011;6924;52.122;9.952;2024-03-02T03:49:45;15.93;;;12.50;;
13704;SDS011;6924;52.122;9.952;2024-03-02T03:52:11;17.67;;;11.63;;
13704;SDS011;6924;52.122;9.952;2024-03-02T03:54:37;15.93;;;12.87;;
13704;SDS011;6924;52.122;9.952;2024-03-02T03:57:04;15.87;;;11.97;;
13704;SDS011;6924;52.122;9.952;2024-03-02T03:59:30;13.40;;;11.57;;
13704;SDS011;6924;52.122;9.952;2024-03-02T04:01:57;16.67;;;13.50;;
13704;SDS011;6924;52.122;9.952;2024-03-02T04:04:24;15.83;;;12.30;;
13704;SDS011;6924;52.122;9.952;2024-03-02T04:06:51;14.33;;;12.30;;
13704;SDS011;6924;52.122;9.952;2024-03-02T04:09:17;15.53;;;13.10;;
13704;SDS011;6924;52.122;9.952;2024-03-02T04:11:43;13.93;;;12.20;;
13704;SDS011;6924;52.122;9.952;2024-03-02T04:14:10;14.63;;;12.17;;
13704;SDS011;6924;52.122;9.952;2024-03-02T04:16:37;16.37;;;12.83;;
13704;SDS011;6924;52.122;9.952;2024-03-02T04:19:04;15.33;;;12.93;;
13704;SDS011;6924;52.122;9.952;2024-03-02T04:21:31;13.37;;;11.50;;
13704;SDS011;6924;52.122;9.952;2024-03-02T04:23:58;15.60;;;12.50;;
13704;SDS011;6924;52.122;9.952;2024-03-02T04:26:24;14.10;;;12.57;;
13704;SDS011;6924;52.122;9.952;2024-03-02T04:28:51;15.63;;;12.73;;
13704;SDS011;6924;52.122;9.952;2024-03-02T04:31:17;14.07;;;12.57;;
13704;SDS011;6924;52.122;9.952;2024-03-02T04:33:44;16.50;;;11.80;;
13704;SDS011;6924;52.122;9.952;2024-03-02T04:36:10;16.87;;;13.00;;
13704;SDS011;6924;52.122;9.952;2024-03-02T04:38:38;16.63;;;12.70;;
13704;SDS011;6924;52.122;9.952;2024-03-02T04:41:05;18.00;;;12.67;;
13704;SDS011;6924;52.122;9.952;2024-03-02T04:43:32;17.50;;;12.87;;
13704;SDS011;6924;52.122;9.952;2024-03-02T04:45:59;17.43;;;13.50;;
13704;SDS011;6924;52.122;9.952;2024-03-02T04:48:25;16.13;;;14.10;;
13704;SDS011;6924;52.122;9.952;2024-03-02T04:50:52;18.13;;;13.90;;
13704;SDS011;6924;52.122;9.952;2024-03-02T04:53:18;15.83;;;12.50;;
13704;SDS011;6924;52.122;9.952;2024-03-02T04:55:46;14.47;;;11.87;;
13704;SDS011;6924;52.122;9.952;2024-03-02T04:58:44;18.63;;;14.10;;
13704;SDS011;6924;52.122;9.952;2024-03-02T05:01:10;18.87;;;13.67;;
13704;SDS011;6924;52.122;9.952;2024-03-02T05:03:36;22.97;;;13.97;;
13704;SDS011;6924;52.122;9.952;2024-03-02T05:06:03;16.80;;;13.27;;
13704;SDS011;6924;52.122;9.952;2024-03-02T05:08:30;17.97;;;13.23;;
13704;SDS011;6924;52.122;9.952;2024-03-02T05:10:57;17.73;;;13.10;;
13704;SDS011;6924;52.122;9.952;2024-03-02T05:13:44;17.87;;;13.40;;
13704;SDS011;6924;52.122;9.952;2024-03-02T05:16:09;14.87;;;12.10;;
13704;SDS011;6924;52.122;9.952;2024-03-02T05:18:37;16.03;;;12.90;;
13704;SDS011;6924;52.122;9.952;2024-03-02T05:21:03;19.10;;;12.73;;
13704;SDS011;6924;52.122;9.952;2024-03-02T05:23:29;15.47;;;12.50;;
13704;SDS011;6924;52.122;9.952;2024-03-02T05:25:57;16.63;;;12.57;;
13704;SDS011;6924;52.122;9.952;2024-03-02T05:28:24;16.87;;;12.27;;
13704;SDS011;6924;52.122;9.952;2024-03-02T05:30:50;14.37;;;12.80;;
13704;SDS011;6924;52.122;9.952;2024-03-02T05:33:17;15.80;;;12.13;;
13704;SDS011;6924;52.122;9.952;2024-03-02T05:35:43;16.67;;;12.27;;
13704;SDS011;6924;52.122;9.952;2024-03-02T05:38:10;18.17;;;13.03;;
13704;SDS011;6924;52.122;9.952;2024-03-02T05:40:36;16.90;;;12.97;;
13704;SDS011;6924;52.122;9.952;2024-03-02T05:43:04;15.10;;;12.67;;
13704;SDS011;6924;52.122;9.952;2024-03-02T05:45:30;19.43;;;12.87;;
13704;SDS011;6924;52.122;9.952;2024-03-02T05:47:56;17.33;;;13.67;;
13704;SDS011;6924;52.122;9.952;2024-03-02T05:50:23;15.47;;;12.63;;
13704;SDS011;6924;52.122;9.952;2024-03-02T05:52:49;18.43;;;12.90;;
13704;SDS011;6924;52.122;9.952;2024-03-02T05:55:16;15.57;;;12.30;;
13704;SDS011;6924;52.122;9.952;2024-03-02T05:57:42;21.10;;;13.47;;
13704;SDS011;6924;52.122;9.952;2024-03-02T06:00:25;15.07;;;12.80;;
13704;SDS011;6924;52.122;9.952;2024-03-02T06:02:51;17.57;;;12.93;;
13704;SDS011;6924;52.122;9.952;2024-03-02T06:05:17;15.47;;;13.27;;
13704;SDS011;6924;52.122;9.952;2024-03-02T06:07:44;14.73;;;12.67;;
13704;SDS011;6924;52.122;9.952;2024-03-02T06:10:10;14.10;;;11.47;;
13704;SDS011;6924;52.122;9.952;2024-03-02T06:12:37;19.73;;;13.50;;
13704;SDS011;6924;52.122;9.952;2024-03-02T06:15:03;16.23;;;12.13;;
13704;SDS011;6924;52.122;9.952;2024-03-02T06:17:32;16.27;;;12.73;;
13704;SDS011;6924;52.122;9.952;2024-03-02T06:19:58;16.57;;;12.00;;
13704;SDS011;6924;52.122;9.952;2024-03-02T06:22:24;18.67;;;12.50;;
13704;SDS011;6924;52.122;9.952;2024-03-02T06:24:51;14.97;;;11.53;;
13704;SDS011;6924;52.122;9.952;2024-03-02T06:27:17;17.43;;;13.43;;
13704;SDS011;6924;52.122;9.952;2024-03-02T06:29:43;14.07;;;12.40;;
13704;SDS011;6924;52.122;9.952;2024-03-02T06:32:10;13.83;;;12.07;;
13704;SDS011;6924;52.122;9.952;2024-03-02T06:34:38;14.83;;;12.50;;
13704;SDS011;6924;52.122;9.952;2024-03-02T06:37:04;20.07;;;12.97;;
13704;SDS011;6924;52.122;9.952;2024-03-02T06:39:30;18.63;;;13.33;;
13704;SDS011;6924;52.122;9.952;2024-03-02T06:41:59;16.37;;;13.67;;
13704;SDS011;6924;52.122;9.952;2024-03-02T06:44:25;17.93;;;13.23;;
13704;SDS011;6924;52.122;9.952;2024-03-02T06:46:51;16.33;;;12.47;;
13704;SDS011;6924;52.122;9.952;2024-03-02T06:49:18;18.90;;;12.67;;
13704;SDS011;6924;52.122;9.952;2024-03-02T06:51:45;15.97;;;12.30;;
13704;SDS011;6924;52.122;9.952;2024-03-02T06:54:12;17.50;;;12.70;;
13704;SDS011;6924;52.122;9.952;2024-03-02T06:56:38;18.37;;;12.87;;
13704;SDS011;6924;52.122;9.952;2024-03-02T06:59:05;16.03;;;13.20;;
13704;SDS011;6924;52.122;9.952;2024-03-02T07:01:32;20.03;;;13.17;;
13704;SDS011;6924;52.122;9.952;2024-03-02T07:03:59;18.80;;;13.17;;
13704;SDS011;6924;52.122;9.952;2024-03-02T07:06:25;15.00;;;11.63;;
13704;SDS011;6924;52.122;9.952;2024-03-02T07:08:53;14.90;;;12.57;;
13704;SDS011;6924;52.122;9.952;2024-03-02T07:11:20;14.43;;;12.10;;
13704;SDS011;6924;52.122;9.952;2024-03-02T07:13:46;15.50;;;12.27;;
13704;SDS011;6924;52.122;9.952;2024-03-02T07:16:12;16.63;;;12.93;;
13704;SDS011;6924;52.122;9.952;2024-03-02T07:18:53;15.67;;;13.23;;
13704;SDS011;6924;52.122;9.952;2024-03-02T07:21:21;15.87;;;12.07;;
13704;SDS011;6924;52.122;9.952;2024-03-02T07:23:47;14.23;;;11.50;;
13704;SDS011;6924;52.122;9.952;2024-03-02T07:26:15;13.70;;;11.60;;
13704;SDS011;6924;52.122;9.952;2024-03-02T07:28:43;16.77;;;11.80;;
13704;SDS011;6924;52.122;9.952;2024-03-02T07:31:09;12.70;;;10.63;;
13704;SDS011;6924;52.122;9.952;2024-03-02T07:33:36;14.80;;;11.17;;
13704;SDS011;6924;52.122;9.952;2024-03-02T07:36:03;14.97;;;11.73;;
13704;SDS011;6924;52.122;9.952;2024-03-02T07:38:30;15.30;;;10.90;;
13704;SDS011;6924;52.122;9.952;2024-03-02T07:40:58;13.80;;;11.47;;
13704;SDS011;6924;52.122;9.952;2024-03-02T07:43:26;13.33;;;11.50;;
13704;SDS011;6924;52.122;9.952;2024-03-02T07:45:52;13.93;;;11.53;;
13704;SDS011;6924;52.122;9.952;2024-03-02T07:48:19;13.17;;;10.83;;
13704;SDS011;6924;52.122;9.952;2024-03-02T07:50:45;13.00;;;11.50;;
13704;SDS011;6924;52.122;9.952;2024-03-02T07:53:12;12.80;;;10.90;;
13704;SDS011;6924;52.122;9.952;2024-03-02T07:55:39;13.23;;;11.00;;
13704;SDS011;6924;52.122;9.952;2024-03-02T07:58:06;16.50;;;11.03;;
13704;SDS011;6924;52.122;9.952;2024-03-02T08:00:33;14.70;;;12.37;;
13704;SDS011;6924;52.122;9.952;2024-03-02T08:03:01;11.93;;;10.50;;
13704;SDS011;6924;52.122;9.952;2024-03-02T08:05:28;16.30;;;11.60;;
13704;SDS011;6924;52.122;9.952;2024-03-02T08:07:54;14.63;;;11.10;;
13704;SDS011;6924;52.122;9.952;2024-03-02T08:10:21;14.77;;;11.17;;
13704;SDS011;6924;52.122;9.952;2024-03-02T08:12:47;13.03;;;10.97;;
13704;SDS011;6924;52.122;9.952;2024-03-02T08:15:14;15.73;;;11.37;;
13704;SDS011;6924;52.122;9.952;2024-03-02T08:17:41;14.17;;;11.07;;
13704;SDS011;6924;52.122;9.952;2024-03-02T08:20:13;14.50;;;11.80;;
13704;SDS011;6924;52.122;9.952;2024-03-02T08:22:39;15.23;;;12.33;;
13704;SDS011;6924;52.122;9.952;2024-03-02T08:25:06;17.97;;;11.93;;
13704;SDS011;6924;52.122;9.952;2024-03-02T08:27:34;15.47;;;11.63;;
13704;SDS011;6924;52.122;9.952;2024-03-02T08:30:01;17.13;;;12.20;;
13704;SDS011;6924;52.122;9.952;2024-03-02T08:32:28;14.27;;;11.93;;
13704;SDS011;6924;52.122;9.952;2024-03-02T08:34:56;13.60;;;11.43;;
13704;SDS011;6924;52.122;9.952;2024-03-02T08:37:22;15.87;;;11.40;;
13704;SDS011;6924;52.122;9.952;2024-03-02T08:39:49;15.70;;;11.43;;
13704;SDS011;6924;52.122;9.952;2024-03-02T08:42:15;14.07;;;12.37;;
13704;SDS011;6924;52.122;9.952;2024-03-02T08:44:42;14.90;;;12.80;;
13704;SDS011;6924;52.122;9.952;2024-03-02T08:47:09;13.60;;;10.87;;
13704;SDS011;6924;52.122;9.952;2024-03-02T08:49:35;13.83;;;10.73;;
13704;SDS011;6924;52.122;9.952;2024-03-02T08:52:03;12.07;;;10.23;;
13704;SDS011;6924;52.122;9.952;2024-03-02T08:54:30;11.90;;;9.93;;
13704;SDS011;6924;52.122;9.952;2024-03-02T08:56:56;12.47;;;10.37;;
13704;SDS011;6924;52.122;9.952;2024-03-02T08:59:22;12.77;;;9.93;;
13704;SDS011;6924;52.122;9.952;2024-03-02T09:01:50;11.80;;;10.60;;
13704;SDS011;6924;52.122;9.952;2024-03-02T09:04:16;12.10;;;10.30;;
13704;SDS011;6924;52.122;9.952;2024-03-02T09:06:44;12.13;;;9.60;;
13704;SDS011;6924;52.122;9.952;2024-03-02T09:09:11;12.77;;;10.67;;
13704;SDS011;6924;52.122;9.952;2024-03-02T09:11:38;12.40;;;9.47;;
13704;SDS011;6924;52.122;9.952;2024-03-02T09:14:04;11.10;;;10.00;;
13704;SDS011;6924;52.122;9.952;2024-03-02T09:16:31;12.33;;;9.50;;
13704;SDS011;6924;52.122;9.952;2024-03-02T09:18:57;10.57;;;9.50;;
13704;SDS011;6924;52.122;9.952;2024-03-02T09:21:23;10.73;;;9.63;;
13704;SDS011;6924;52.122;9.952;2024-03-02T09:23:50;11.77;;;9.50;;
13704;SDS011;6924;52.122;9.952;2024-03-02T09:26:18;14.47;;;10.47;;
13704;SDS011;6924;52.122;9.952;2024-03-02T09:28:45;11.47;;;9.17;;
13704;SDS011;6924;52.122;9.952;2024-03-02T09:31:12;11.33;;;9.67;;
13704;SDS011;6924;52.122;9.952;2024-03-02T09:33:38;13.73;;;10.37;;
13704;SDS011;6924;52.122;9.952;2024-03-02T09:36:05;11.73;;;10.33;;
13704;SDS011;6924;52.122;9.952;2024-03-02T09:38:31;11.00;;;9.53;;
13704;SDS011;6924;52.122;9.952;2024-03-02T09:40:58;11.13;;;8.97;;
13704;SDS011;6924;52.122;9.952;2024-03-02T09:43:27;9.70;;;8.67;;
13704;SDS011;6924;52.122;9.952;2024-03-02T09:45:54;10.30;;;9.30;;
13704;SDS011;6924;52.122;9.952;2024-03-02T09:48:20;11.60;;;9.53;;
13704;SDS011;6924;52.122;9.952;2024-03-02T09:50:47;10.23;;;9.10;;
13704;SDS011;6924;52.122;9.952;2024-03-02T09:53:13;11.60;;;8.77;;
13704;SDS011;6924;52.122;9.952;2024-03-02T09:55:41;12.47;;;8.53;;
13704;SDS011;6924;52.122;9.952;2024-03-02T09:58:11;11.67;;;9.07;;
13704;SDS011;6924;52.122;9.952;2024-03-02T10:00:39;12.37;;;8.57;;
13704;SDS011;6924;52.122;9.952;2024-03-02T10:03:06;12.07;;;9.03;;
13704;SDS011;6924;52.122;9.952;2024-03-02T10:05:37;9.37;;;8.07;;
13704;SDS011;6924;52.122;9.952;2024-03-02T10:08:04;11.40;;;8.30;;
13704;SDS011;6924;52.122;9.952;2024-03-02T10:10:35;9.57;;;8.57;;
13704;SDS011;6924;52.122;9.952;2024-03-02T10:13:05;9.87;;;8.80;;
13704;SDS011;6924;52.122;9.952;2024-03-02T10:15:32;9.50;;;7.83;;
13704;SDS011;6924;52.122;9.952;2024-03-02T10:17:59;7.90;;;7.10;;
13704;SDS011;6924;52.122;9.952;2024-03-02T10:20:26;10.13;;;7.97;;
13704;SDS011;6924;52.122;9.952;2024-03-02T10:22:54;11.53;;;8.00;;
13704;SDS011;6924;52.122;9.952;2024-03-02T10:25:30;8.20;;;6.90;;
13704;SDS011;6924;52.122;9.952;2024-03-02T10:27:57;31.60;;;8.27;;
13704;SDS011;6924;52.122;9.952;2024-03-02T10:30:24;9.23;;;8.20;;
13704;SDS011;6924;52.122;9.952;2024-03-02T10:32:51;10.17;;;7.47;;
13704;SDS011;6924;52.122;9.952;2024-03-02T10:35:20;21.40;;;8.83;;
13704;SDS011;6924;52.122;9.952;2024-03-02T10:37:48;6.87;;;6.17;;
13704;SDS011;6924;52.122;9.952;2024-03-02T10:40:14;16.90;;;7.23;;
13704;SDS011;6924;52.122;9.952;2024-03-02T10:42:41;8.83;;;7.03;;
13704;SDS011;6924;52.122;9.952;2024-03-02T10:45:08;8.23;;;6.20;;
13704;SDS011;6924;52.122;9.952;2024-03-02T10:47:36;7.57;;;6.87;;
13704;SDS011;6924;52.122;9.952;2024-03-02T10:50:03;7.37;;;6.13;;
13704;SDS011;6924;52.122;9.952;2024-03-02T10:52:34;7.07;;;5.97;;
13704;SDS011;6924;52.122;9.952;2024-03-02T10:55:01;8.80;;;7.13;;
13704;SDS011;6924;52.122;9.952;2024-03-02T10:57:31;7.53;;;5.50;;
13704;SDS011;6924;52.122;9.952;2024-03-02T11:00:05;6.70;;;5.47;;
13704;SDS011;6924;52.122;9.952;2024-03-02T11:02:39;6.73;;;5.83;;
13704;SDS011;6924;52.122;9.952;2024-03-02T11:05:08;5.53;;;4.97;;
13704;SDS011;6924;52.122;9.952;2024-03-02T11:07:38;7.03;;;6.20;;
13704;SDS011;6924;52.122;9.952;2024-03-02T11:10:06;7.17;;;5.63;;
13704;SDS011;6924;52.122;9.952;2024-03-02T11:12:36;5.93;;;5.33;;
13704;SDS011;6924;52.122;9.952;2024-03-02T11:15:07;8.90;;;6.07;;
13704;SDS011;6924;52.122;9.952;2024-03-02T11:17:36;6.97;;;5.53;;
13704;SDS011;6924;52.122;9.952;2024-03-02T11:20:06;7.00;;;6.30;;
13704;SDS011;6924;52.122;9.952;2024-03-02T11:22:35;8.17;;;6.20;;
13704;SDS011;6924;52.122;9.952;2024-03-02T11:25:04;7.63;;;6.50;;
13704;SDS011;6924;52.122;9.952;2024-03-02T11:33:15;8.27;;;5.70;;
13704;SDS011;6924;52.122;9.952;2024-03-02T11:35:49;6.13;;;5.53;;
13704;SDS011;6924;52.122;9.952;2024-03-02T11:38:15;5.80;;;5.20;;
13704;SDS011;6924;52.122;9.952;2024-03-02T11:40:45;7.30;;;6.03;;
13704;SDS011;6924;52.122;9.952;2024-03-02T11:43:11;6.10;;;5.50;;
13704;SDS011;6924;52.122;9.952;2024-03-02T11:45:38;6.20;;;5.60;;
13704;SDS011;6924;52.122;9.952;2024-03-02T11:48:09;6.03;;;5.33;;
13704;SDS011;6924;52.122;9.952;2024-03-02T11:50:40;6.47;;;5.20;;
13704;SDS011;6924;52.122;9.952;2024-03-02T11:53:07;6.60;;;4.97;;
13704;SDS011;6924;52.122;9.952;2024-03-02T11:55:35;6.33;;;5.73;;
13704;SDS011;6924;52.122;9.952;2024-03-02T11:58:04;7.43;;;5.83;;
13704;SDS011;6924;52.122;9.952;2024-03-02T12:00:31;6.30;;;4.90;;
13704;SDS011;6924;52.122;9.952;2024-03-02T12:02:59;6.47;;;5.63;;
13704;SDS011;6924;52.122;9.952;2024-03-02T12:05:27;8.43;;;6.40;;
13704;SDS011;6924;52.122;9.952;2024-03-02T12:07:55;6.73;;;6.07;;
13704;SDS011;6924;52.122;9.952;2024-03-02T12:10:22;7.37;;;6.63;;
13704;SDS011;6924;52.122;9.952;2024-03-02T12:12:54;6.13;;;5.17;;
13704;SDS011;6924;52.122;9.952;2024-03-02T12:15:23;6.17;;;5.57;;
13704;SDS011;6924;52.122;9.952;2024-03-02T12:17:52;6.63;;;6.03;;
13704;SDS011;6924;52.122;9.952;2024-03-02T12:20:20;6.27;;;5.07;;
13704;SDS011;6924;52.122;9.952;2024-03-02T12:22:46;12.27;;;6.63;;
13704;SDS011;6924;52.122;9.952;2024-03-02T12:25:12;8.27;;;6.33;;
13704;SDS011;6924;52.122;9.952;2024-03-02T12:27:40;6.27;;;5.67;;
13704;SDS011;6924;52.122;9.952;2024-03-02T12:30:06;7.20;;;6.47;;
13704;SDS011;6924;52.122;9.952;2024-03-02T12:32:37;6.63;;;5.77;;
13704;SDS011;6924;52.122;9.952;2024-03-02T12:35:04;6.87;;;5.97;;
13704;SDS011;6924;52.122;9.952;2024-03-02T12:37:31;6.60;;;4.90;;
13704;SDS011;6924;52.122;9.952;2024-03-02T12:39:58;5.63;;;4.63;;
13704;SDS011;6924;52.122;9.952;2024-03-02T12:42:25;6.10;;;4.87;;
13704;SDS011;6924;52.122;9.952;2024-03-02T12:44:51;5.50;;;4.90;;
13704;SDS011;6924;52.122;9.952;2024-03-02T12:47:19;4.80;;;4.30;;
13704;SDS011;6924;52.122;9.952;2024-03-02T12:49:47;5.00;;;4.47;;
13704;SDS011;6924;52.122;9.952;2024-03-02T12:52:17;4.53;;;4.13;;
13704;SDS011;6924;52.122;9.952;2024-03-02T12:54:43;4.43;;;4.00;;
13704;SDS011;6924;52.122;9.952;2024-03-02T12:57:10;4.60;;;3.90;;
13704;SDS011;6924;52.122;9.952;2024-03-02T12:59:44;4.30;;;3.90;;
13704;SDS011;6924;52.122;9.952;2024-03-02T13:02:16;5.40;;;4.07;;
13704;SDS011;6924;52.122;9.952;2024-03-02T13:04:43;11.17;;;5.83;;
13704;SDS011;6924;52.122;9.952;2024-03-02T13:07:11;4.27;;;3.87;;
13704;SDS011;6924;52.122;9.952;2024-03-02T13:09:38;6.87;;;3.77;;
13704;SDS011;6924;52.122;9.952;2024-03-02T13:12:05;3.40;;;3.10;;
13704;SDS011;6924;52.122;9.952;2024-03-02T13:14:32;3.97;;;2.93;;
13704;SDS011;6924;52.122;9.952;2024-03-02T13:17:00;3.40;;;2.67;;
13704;SDS011;6924;52.122;9.952;2024-03-02T13:19:29;4.13;;;3.73;;
13704;SDS011;6924;52.122;9.952;2024-03-02T13:21:56;4.33;;;3.93;;
13704;SDS011;6924;52.122;9.952;2024-03-02T13:24:24;4.57;;;3.90;;
13704;SDS011;6924;52.122;9.952;2024-03-02T13:26:53;4.23;;;3.70;;
13704;SDS011;6924;52.122;9.952;2024-03-02T13:29:23;4.00;;;3.13;;
13704;SDS011;6924;52.122;9.952;2024-03-02T13:31:49;4.33;;;3.80;;
13704;SDS011;6924;52.122;9.952;2024-03-02T13:34:16;4.47;;;4.00;;
13704;SDS011;6924;52.122;9.952;2024-03-02T13:36:42;4.50;;;3.57;;
13704;SDS011;6924;52.122;9.952;2024-03-02T13:39:09;4.53;;;3.73;;
13704;SDS011;6924;52.122;9.952;2024-03-02T13:41:36;5.53;;;3.80;;
13704;SDS011;6924;52.122;9.952;2024-03-02T13:44:03;6.93;;;4.00;;
13704;SDS011;6924;52.122;9.952;2024-03-02T13:46:30;4.50;;;4.10;;
13704;SDS011;6924;52.122;9.952;2024-03-02T13:48:56;5.00;;;4.23;;
13704;SDS011;6924;52.122;9.952;2024-03-02T13:51:23;4.63;;;4.03;;
13704;SDS011;6924;52.122;9.952;2024-03-02T13:53:50;4.73;;;4.27;;
13704;SDS011;6924;52.122;9.952;2024-03-02T13:56:16;4.87;;;3.63;;
13704;SDS011;6924;52.122;9.952;2024-03-02T13:58:44;4.77;;;4.27;;
13704;SDS011;6924;52.122;9.952;2024-03-02T14:01:11;5.57;;;4.07;;
13704;SDS011;6924;52.122;9.952;2024-03-02T14:03:37;4.43;;;3.67;;
13704;SDS011;6924;52.122;9.952;2024-03-02T14:06:04;5.30;;;4.37;;
13704;SDS011;6924;52.122;9.952;2024-03-02T14:08:31;5.33;;;3.73;;
13704;SDS011;6924;52.122;9.952;2024-03-02T14:10:59;4.63;;;3.27;;
13704;SDS011;6924;52.122;9.952;2024-03-02T14:13:27;4.10;;;3.43;;
13704;SDS011;6924;52.122;9.952;2024-03-02T14:15:55;4.53;;;3.80;;
13704;SDS011;6924;52.122;9.952;2024-03-02T14:18:23;3.67;;;3.37;;
13704;SDS011;6924;52.122;9.952;2024-03-02T14:20:49;9.83;;;3.80;;
13704;SDS011;6924;52.122;9.952;2024-03-02T14:23:17;4.50;;;3.50;;
13704;SDS011;6924;52.122;9.952;2024-03-02T14:25:44;3.43;;;3.13;;
13704;SDS011;6924;52.122;9.952;2024-03-02T14:28:10;3.30;;;2.97;;
13704;SDS011;6924;52.122;9.952;2024-03-02T14:30:38;4.37;;;3.50;;
13704;SDS011;6924;52.122;9.952;2024-03-02T14:33:05;4.53;;;3.77;;
13704;SDS011;6924;52.122;9.952;2024-03-02T14:35:32;4.73;;;3.87;;
13704;SDS011;6924;52.122;9.952;2024-03-02T14:37:58;5.70;;;3.53;;
13704;SDS011;6924;52.122;9.952;2024-03-02T14:40:25;4.93;;;3.87;;
13704;SDS011;6924;52.122;9.952;2024-03-02T14:42:52;4.37;;;3.27;;
13704;SDS011;6924;52.122;9.952;2024-03-02T14:45:18;3.93;;;3.53;;
13704;SDS011;6924;52.122;9.952;2024-03-02T14:47:45;6.53;;;3.83;;
13704;SDS011;6924;52.122;9.952;2024-03-02T14:50:13;4.57;;;3.73;;